createdAt,value
2024-01-11T00:00:55.923Z,40.13
2024-01-11T00:01:55.903Z,40.03
2024-01-11T00:02:55.835Z,40.05
2024-01-11T00:03:55.844Z,39.93
2024-01-11T00:04:55.856Z,39.83
2024-01-11T00:05:55.920Z,39.83
2024-01-11T00:06:55.841Z,39.95
2024-01-11T00:07:55.807Z,40.05
2024-01-11T00:08:55.764Z,40.05
2024-01-11T00:09:55.761Z,40.05
2024-01-11T00:10:57.299Z,40.05
2024-01-11T00:11:55.735Z,40.05
2024-01-11T00:12:55.717Z,40.05
2024-01-11T00:13:55.734Z,40.05
2024-01-11T00:14:55.698Z,40.05
2024-01-11T00:15:55.775Z,40.03
2024-01-11T00:16:55.696Z,39.93
2024-01-11T00:17:55.808Z,39.73
2024-01-11T00:18:55.709Z,39.93
2024-01-11T00:19:55.660Z,39.83
2024-01-11T00:20:55.597Z,40.13
2024-01-11T00:21:55.603Z,39.93
2024-01-11T00:22:55.615Z,40.03
2024-01-11T00:23:55.568Z,39.93
2024-01-11T00:24:55.544Z,40.03
2024-01-11T00:25:55.588Z,39.93
2024-01-11T00:26:55.518Z,39.95
2024-01-11T00:27:55.873Z,40.05
2024-01-11T00:28:55.504Z,39.93
2024-01-11T00:29:55.502Z,39.75
2024-01-11T00:30:55.494Z,39.84
2024-01-11T00:31:55.509Z,39.83
2024-01-11T00:32:55.566Z,40.03
2024-01-11T00:33:55.678Z,39.83
2024-01-11T00:34:55.459Z,39.83
2024-01-11T00:35:55.405Z,39.73
2024-01-11T00:36:55.386Z,39.75
2024-01-11T00:37:55.406Z,39.62
2024-01-11T00:38:55.367Z,39.93
2024-01-11T00:39:55.369Z,39.83
2024-01-11T00:40:55.337Z,39.83
2024-01-11T00:41:55.322Z,39.93
2024-01-11T00:42:55.315Z,39.83
2024-01-11T00:43:55.354Z,39.83
2024-01-11T00:44:55.280Z,39.84
2024-01-11T00:45:55.260Z,39.83
2024-01-11T00:46:55.256Z,39.83
2024-01-11T00:47:55.415Z,39.73
2024-01-11T00:48:56.905Z,39.73
2024-01-11T00:49:55.315Z,39.73
2024-01-11T00:50:55.196Z,39.64
2024-01-11T00:51:55.194Z,39.84
2024-01-11T00:52:55.200Z,39.95
2024-01-11T00:53:55.164Z,39.95
2024-01-11T00:54:55.140Z,39.75
2024-01-11T00:55:55.423Z,39.95
2024-01-11T00:56:55.113Z,39.75
2024-01-11T00:57:55.117Z,39.84
2024-01-11T00:58:55.105Z,39.75
2024-01-11T00:59:55.084Z,39.84
2024-01-11T01:00:55.109Z,39.84
2024-01-11T01:01:55.072Z,39.95
2024-01-11T01:02:55.044Z,39.75
2024-01-11T01:03:55.089Z,39.75
2024-01-11T01:04:55.024Z,39.95
2024-01-11T01:05:55.117Z,39.75
2024-01-11T01:06:54.997Z,39.84
2024-01-11T01:07:55.400Z,39.95
2024-01-11T01:08:54.994Z,39.64
2024-01-11T01:09:55.005Z,39.64
2024-01-11T01:10:54.984Z,39.84
2024-01-11T01:11:54.999Z,39.84
2024-01-11T01:12:54.925Z,39.75
2024-01-11T01:13:54.939Z,39.83
2024-01-11T01:14:54.885Z,39.84
2024-01-11T01:15:54.870Z,39.84
2024-01-11T01:16:54.890Z,39.75
2024-01-11T01:17:55.028Z,39.84
2024-01-11T01:18:54.894Z,39.84
2024-01-11T01:19:54.909Z,39.84
2024-01-11T01:20:54.806Z,39.84
2024-01-11T01:21:54.792Z,39.75
2024-01-11T01:22:54.808Z,39.84
2024-01-11T01:23:54.825Z,39.84
2024-01-11T01:24:54.785Z,39.95
2024-01-11T01:25:54.949Z,39.84
2024-01-11T01:26:54.715Z,39.84
2024-01-11T01:27:54.725Z,39.84
2024-01-11T01:28:54.741Z,39.75
2024-01-11T01:29:54.685Z,39.95
2024-01-11T01:30:54.735Z,39.95
2024-01-11T01:31:54.702Z,39.84
2024-01-11T01:32:54.771Z,39.95
2024-01-11T01:33:54.682Z,39.84
2024-01-11T01:34:54.655Z,40.05
2024-01-11T01:35:54.612Z,39.75
2024-01-11T01:36:54.657Z,39.75
2024-01-11T01:37:54.635Z,39.95
2024-01-11T01:38:54.565Z,39.95
2024-01-11T01:39:54.558Z,39.84
2024-01-11T01:40:54.713Z,40.15
2024-01-11T01:41:54.518Z,40.05
2024-01-11T01:42:54.518Z,40.05
2024-01-11T01:43:54.594Z,40.05
2024-01-11T01:44:54.490Z,40.05
2024-01-11T01:45:54.471Z,40.05
2024-01-11T01:46:54.566Z,39.95
2024-01-11T01:47:54.518Z,39.84
2024-01-11T01:48:54.465Z,39.84
2024-01-11T01:49:54.482Z,39.95
2024-01-11T01:50:54.428Z,40.05
2024-01-11T01:51:54.385Z,39.84
2024-01-11T01:52:54.426Z,39.84
2024-01-11T01:53:54.361Z,39.84
2024-01-11T01:54:54.347Z,39.95
2024-01-11T01:55:54.344Z,39.95
2024-01-11T01:56:54.335Z,39.95
2024-01-11T01:57:54.325Z,39.84
2024-01-11T01:58:54.435Z,39.95
2024-01-11T01:59:54.279Z,39.95
2024-01-11T02:00:54.321Z,39.95
2024-01-11T02:01:54.273Z,39.75
2024-01-11T02:02:54.417Z,39.95
2024-01-11T02:03:54.301Z,40.05
2024-01-11T02:04:54.387Z,39.84
2024-01-11T02:05:54.298Z,39.75
2024-01-11T02:06:54.194Z,39.95
2024-01-11T02:07:54.222Z,39.84
2024-01-11T02:08:54.177Z,39.75
2024-01-11T02:09:54.174Z,39.75
2024-01-11T02:10:54.135Z,39.75
2024-01-11T02:11:54.112Z,39.75
2024-01-11T02:12:54.107Z,39.84
2024-01-11T02:13:54.136Z,39.95
2024-01-11T02:14:54.093Z,39.75
2024-01-11T02:15:54.082Z,39.84
2024-01-11T02:16:54.128Z,39.75
2024-01-11T02:17:54.185Z,39.84
2024-01-11T02:18:54.158Z,39.84
2024-01-11T02:19:54.045Z,39.95
2024-01-11T02:20:54.101Z,40.05
2024-01-11T02:21:54.003Z,39.75
2024-01-11T02:22:54.069Z,39.84
2024-01-11T02:23:53.960Z,39.95
2024-01-11T02:24:53.972Z,39.64
2024-01-11T02:25:54.001Z,39.75
2024-01-11T02:26:53.930Z,39.64
2024-01-11T02:27:53.911Z,39.84
2024-01-11T02:28:53.919Z,39.64
2024-01-11T02:29:53.897Z,39.54
2024-01-11T02:30:53.989Z,39.75
2024-01-11T02:31:53.897Z,39.75
2024-01-11T02:32:54.033Z,39.75
2024-01-11T02:33:53.936Z,39.84
2024-01-11T02:34:53.889Z,39.75
2024-01-11T02:35:53.857Z,39.75
2024-01-11T02:36:53.798Z,39.75
2024-01-11T02:37:53.833Z,39.64
2024-01-11T02:38:53.777Z,39.75
2024-01-11T02:39:53.758Z,39.95
2024-01-11T02:40:53.769Z,39.84
2024-01-11T02:41:53.724Z,39.64
2024-01-11T02:42:53.737Z,39.75
2024-01-11T02:43:53.726Z,39.75
2024-01-11T02:44:53.692Z,39.75
2024-01-11T02:45:53.676Z,39.64
2024-01-11T02:46:53.694Z,39.84
2024-01-11T02:47:53.722Z,39.64
2024-01-11T02:48:53.789Z,39.84
2024-01-11T02:49:53.672Z,39.75
2024-01-11T02:50:53.658Z,39.54
2024-01-11T02:51:53.590Z,39.64
2024-01-11T02:52:53.640Z,39.54
2024-01-11T02:53:53.575Z,39.64
2024-01-11T02:54:53.554Z,39.64
2024-01-11T02:55:53.589Z,39.64
2024-01-11T02:56:53.638Z,39.75
2024-01-11T02:57:53.513Z,39.84
2024-01-11T02:58:53.524Z,39.64
2024-01-11T02:59:53.495Z,39.64
2024-01-11T03:00:53.495Z,39.54
2024-01-11T03:01:53.515Z,39.64
2024-01-11T03:02:53.450Z,39.84
2024-01-11T03:03:53.461Z,39.84
2024-01-11T03:04:53.515Z,39.75
2024-01-11T03:05:53.608Z,39.64
2024-01-11T03:06:53.472Z,39.84
2024-01-11T03:07:53.424Z,39.84
2024-01-11T03:08:53.383Z,39.75
2024-01-11T03:09:53.357Z,39.44
2024-01-11T03:10:53.385Z,39.75
2024-01-11T03:11:53.354Z,39.84
2024-01-11T03:12:53.327Z,39.64
2024-01-11T03:13:53.390Z,39.75
2024-01-11T03:14:53.303Z,39.84
2024-01-11T03:15:53.300Z,39.75
2024-01-11T03:16:53.283Z,39.75
2024-01-11T03:17:53.546Z,39.54
2024-01-11T03:18:53.445Z,39.64
2024-01-11T03:19:53.263Z,39.75
2024-01-11T03:20:53.249Z,39.75
2024-01-11T03:21:53.228Z,39.64
2024-01-11T03:22:53.203Z,39.54
2024-01-11T03:23:53.164Z,39.75
2024-01-11T03:24:53.168Z,39.54
2024-01-11T03:25:53.136Z,39.54
2024-01-11T03:26:53.142Z,39.64
2024-01-11T03:27:53.128Z,39.44
2024-01-11T03:28:53.134Z,39.44
2024-01-11T03:29:53.104Z,39.44
2024-01-11T03:30:53.179Z,39.54
2024-01-11T03:31:53.065Z,39.44
2024-01-11T03:32:53.210Z,39.54
2024-01-11T03:33:53.232Z,39.44
2024-01-11T03:34:53.033Z,39.64
2024-01-11T03:35:53.003Z,39.34
2024-01-11T03:36:53.000Z,39.64
2024-01-11T03:37:53.002Z,39.34
2024-01-11T03:38:53.105Z,39.64
2024-01-11T03:39:52.960Z,39.44
2024-01-11T03:40:52.943Z,39.54
2024-01-11T03:41:52.928Z,39.24
2024-01-11T03:42:52.922Z,39.44
2024-01-11T03:43:52.941Z,39.64
2024-01-11T03:44:52.953Z,39.54
2024-01-11T03:45:52.885Z,39.64
2024-01-11T03:46:52.887Z,39.34
2024-01-11T03:47:52.946Z,39.75
2024-01-11T03:48:52.940Z,39.54
2024-01-11T03:49:52.848Z,39.44
2024-01-11T03:50:52.828Z,39.75
2024-01-11T03:51:52.810Z,39.44
2024-01-11T03:52:52.793Z,39.54
2024-01-11T03:53:52.874Z,39.34
2024-01-11T03:54:52.750Z,39.54
2024-01-11T03:55:52.745Z,39.24
2024-01-11T03:56:52.766Z,39.34
2024-01-11T03:57:52.726Z,39.54
2024-01-11T03:58:52.717Z,39.54
2024-01-11T03:59:52.725Z,39.34
2024-01-11T04:00:52.769Z,39.54
2024-01-11T04:01:52.657Z,39.44
2024-01-11T04:02:52.708Z,39.44
2024-01-11T04:03:52.688Z,39.64
2024-01-11T04:04:52.646Z,39.44
2024-01-11T04:05:52.710Z,39.54
2024-01-11T04:06:52.597Z,39.64
2024-01-11T04:07:52.600Z,39.54
2024-01-11T04:08:52.585Z,39.75
2024-01-11T04:09:52.939Z,39.34
2024-01-11T04:10:52.557Z,39.54
2024-01-11T04:11:52.527Z,39.44
2024-01-11T04:12:52.519Z,39.54
2024-01-11T04:13:52.553Z,39.44
2024-01-11T04:14:52.519Z,39.54
2024-01-11T04:15:52.487Z,39.54
2024-01-11T04:16:52.466Z,39.54
2024-01-11T04:17:52.639Z,39.64
2024-01-11T04:18:52.512Z,39.54
2024-01-11T04:19:52.423Z,39.44
2024-01-11T04:20:52.417Z,39.24
2024-01-11T04:21:52.395Z,39.44
2024-01-11T04:22:52.385Z,39.34
2024-01-11T04:23:52.423Z,39.34
2024-01-11T04:24:52.396Z,39.34
2024-01-11T04:25:52.355Z,39.34
2024-01-11T04:26:52.336Z,39.34
2024-01-11T04:27:52.330Z,39.34
2024-01-11T04:28:52.323Z,39.44
2024-01-11T04:29:52.342Z,39.24
2024-01-11T04:30:52.336Z,39.34
2024-01-11T04:31:52.280Z,39.24
2024-01-11T04:32:52.332Z,39.54
2024-01-11T04:33:52.360Z,39.54
2024-01-11T04:34:52.256Z,39.34
2024-01-11T04:35:52.271Z,39.44
2024-01-11T04:36:52.217Z,39.54
2024-01-11T04:37:52.184Z,39.34
2024-01-11T04:38:52.187Z,39.64
2024-01-11T04:39:52.195Z,39.75
2024-01-11T04:40:52.146Z,39.44
2024-01-11T04:41:52.124Z,39.34
2024-01-11T04:42:52.120Z,39.44
2024-01-11T04:43:52.129Z,39.44
2024-01-11T04:44:52.128Z,39.54
2024-01-11T04:45:52.070Z,39.44
2024-01-11T04:46:52.081Z,39.24
2024-01-11T04:47:52.210Z,39.54
2024-01-11T04:48:52.225Z,39.24
2024-01-11T04:49:52.052Z,39.44
2024-01-11T04:50:52.149Z,39.44
2024-01-11T04:51:51.993Z,39.34
2024-01-11T04:52:52.001Z,39.24
2024-01-11T04:53:52.008Z,39.34
2024-01-11T04:54:51.976Z,39.24
2024-01-11T04:55:51.974Z,39.34
2024-01-11T04:56:51.945Z,39.34
2024-01-11T04:57:51.921Z,39.44
2024-01-11T04:58:51.922Z,39.44
2024-01-11T04:59:51.933Z,39.34
2024-01-11T05:00:51.917Z,39.44
2024-01-11T05:01:51.874Z,39.44
2024-01-11T05:02:51.909Z,39.44
2024-01-11T05:03:51.875Z,39.44
2024-01-11T05:04:51.861Z,39.34
2024-01-11T05:05:51.874Z,39.44
2024-01-11T05:06:51.885Z,39.44
2024-01-11T05:07:51.790Z,39.54
2024-01-11T05:08:51.813Z,39.44
2024-01-11T05:09:51.773Z,39.54
2024-01-11T05:10:51.756Z,39.34
2024-01-11T05:11:51.770Z,39.44
2024-01-11T05:12:51.713Z,39.44
2024-01-11T05:13:51.710Z,39.64
2024-01-11T05:14:51.702Z,39.34
2024-01-11T05:15:51.672Z,39.34
2024-01-11T05:16:51.694Z,39.14
2024-01-11T05:17:51.818Z,39.44
2024-01-11T05:18:51.735Z,39.44
2024-01-11T05:19:51.633Z,39.44
2024-01-11T05:20:51.667Z,39.34
2024-01-11T05:21:51.625Z,39.44
2024-01-11T05:22:51.599Z,39.44
2024-01-11T05:23:51.571Z,39.44
2024-01-11T05:24:51.558Z,39.44
2024-01-11T05:25:51.557Z,39.44
2024-01-11T05:26:51.599Z,39.34
2024-01-11T05:27:51.532Z,39.14
2024-01-11T05:28:51.503Z,39.24
2024-01-11T05:29:51.514Z,39.34
2024-01-11T05:30:51.618Z,39.14
2024-01-11T05:31:51.620Z,39.24
2024-01-11T05:32:51.504Z,39.34
2024-01-11T05:33:51.580Z,39.24
2024-01-11T05:34:51.450Z,39.24
2024-01-11T05:35:51.422Z,39.34
2024-01-11T05:36:51.403Z,39.34
2024-01-11T05:37:51.533Z,39.34
2024-01-11T05:38:51.373Z,39.24
2024-01-11T05:39:51.367Z,39.34
2024-01-11T05:40:51.363Z,39.34
2024-01-11T05:41:51.361Z,39.34
2024-01-11T05:42:51.334Z,39.34
2024-01-11T05:43:51.317Z,39.44
2024-01-11T05:44:51.317Z,39.34
2024-01-11T05:45:51.318Z,39.24
2024-01-11T05:46:51.290Z,39.24
2024-01-11T05:47:51.350Z,39.34
2024-01-11T05:48:51.366Z,39.24
2024-01-11T05:49:51.247Z,39.34
2024-01-11T05:50:51.243Z,39.24
2024-01-11T05:51:51.228Z,39.26
2024-01-11T05:52:51.195Z,39.46
2024-01-11T05:53:51.196Z,39.46
2024-01-11T05:54:51.191Z,39.46
2024-01-11T05:55:53.073Z,39.34
2024-01-11T05:56:51.157Z,39.46
2024-01-11T05:57:51.120Z,39.54
2024-01-11T05:58:51.137Z,39.24
2024-01-11T05:59:51.111Z,39.46
2024-01-11T06:00:51.174Z,39.64
2024-01-11T06:01:51.118Z,39.44
2024-01-11T06:02:51.327Z,39.24
2024-01-11T06:03:51.175Z,39.14
2024-01-11T06:04:51.074Z,39.44
2024-01-11T06:05:51.675Z,39.64
2024-01-11T06:06:51.642Z,39.54
2024-01-11T06:07:51.081Z,39.44
2024-01-11T06:08:51.040Z,39.34
2024-01-11T06:09:51.013Z,39.44
2024-01-11T06:10:51.192Z,39.34
2024-01-11T06:11:50.995Z,39.34
2024-01-11T06:12:50.937Z,39.34
2024-01-11T06:13:50.937Z,39.34
2024-01-11T06:14:51.056Z,39.34
2024-01-11T06:15:50.903Z,39.34
2024-01-11T06:16:50.891Z,39.34
2024-01-11T06:17:51.020Z,39.34
2024-01-11T06:18:50.981Z,39.34
2024-01-11T06:19:50.847Z,39.54
2024-01-11T06:20:50.878Z,39.54
2024-01-11T06:21:50.840Z,39.54
2024-01-11T06:22:51.894Z,40.35
2024-01-11T06:23:51.122Z,40.44
2024-01-11T06:24:50.872Z,40.03
2024-01-11T06:25:50.802Z,40.64
2024-01-11T06:26:51.009Z,40.44
2024-01-11T06:27:50.793Z,40.13
2024-01-11T06:28:50.724Z,40.03
2024-01-11T06:29:50.736Z,40.15
2024-01-11T06:30:51.139Z,40.33
2024-01-11T06:41:48.974Z,40.84
2024-01-11T06:42:49.545Z,41.24
2024-01-11T06:43:48.145Z,41.02
2024-01-11T06:44:49.086Z,41.02
2024-01-11T06:45:48.291Z,41.22
2024-01-11T06:46:48.280Z,41.32
2024-01-11T06:47:49.040Z,41.12
2024-01-11T06:48:49.498Z,40.92
2024-01-11T06:49:52.839Z,41.02
2024-01-11T06:50:57.241Z,41.22
2024-01-11T06:52:16.348Z,40.84
2024-01-11T06:55:35.794Z,41.35
2024-01-11T06:59:47.273Z,41.04
2024-01-11T07:00:24.221Z,41.04
2024-01-11T07:04:31.345Z,41.04
2024-01-11T07:12:52.572Z,40.94
2024-01-11T07:13:48.545Z,41.06
2024-01-11T07:14:44.081Z,40.86
2024-01-11T07:16:19.297Z,40.86
2024-01-11T07:16:58.391Z,40.86
2024-01-11T07:17:46.024Z,40.86
2024-01-11T07:18:50.818Z,40.75
2024-01-11T07:19:50.227Z,40.75
2024-01-11T07:20:44.794Z,40.75
2024-01-11T07:21:46.450Z,40.75
2024-01-11T07:22:48.300Z,40.86
2024-01-11T07:23:48.305Z,40.55
2024-01-11T07:24:46.192Z,40.86
2024-01-11T07:25:43.512Z,41.16
2024-01-11T07:29:30.319Z,41.24
2024-01-11T07:29:49.775Z,40.55
2024-01-11T07:30:47.981Z,40.73
2024-01-11T07:31:50.435Z,40.64
2024-01-11T07:32:48.524Z,40.64
2024-01-11T07:33:53.232Z,40.64
2024-01-11T07:34:51.670Z,40.64
2024-01-11T07:38:17.760Z,40.53
2024-01-11T07:38:46.110Z,40.53
2024-01-11T07:40:35.473Z,40.64
2024-01-11T07:40:58.926Z,40.64
2024-01-11T07:44:16.521Z,40.64
2024-01-11T07:44:44.297Z,40.44
2024-01-11T07:45:44.359Z,40.55
2024-01-11T07:46:46.822Z,40.53
2024-01-11T07:47:37.409Z,40.55
2024-01-11T07:48:39.833Z,40.23
2024-01-11T07:49:44.038Z,40.94
2024-01-11T07:50:42.838Z,40.73
2024-01-11T07:56:56.044Z,40.64
2024-01-11T07:57:22.482Z,40.94
2024-01-11T07:58:23.752Z,40.94
2024-01-11T07:59:24.304Z,40.73
2024-01-11T08:00:17.834Z,40.64
2024-01-11T08:01:25.755Z,40.53
2024-01-11T08:02:18.308Z,40.44
2024-01-11T08:03:18.327Z,40.44
2024-01-11T08:04:31.480Z,40.84
2024-01-11T08:05:16.408Z,41.44
2024-01-11T08:06:12.779Z,40.73
2024-01-11T08:07:20.274Z,40.44
2024-01-11T08:08:21.796Z,40.44
2024-01-11T08:09:17.855Z,41.35
2024-01-11T08:15:42.630Z,40.53
2024-01-11T08:18:20.723Z,40.72
2024-01-11T08:18:27.435Z,41.42
2024-01-11T08:19:26.945Z,41.02
2024-01-11T08:20:27.088Z,41.52
2024-01-11T08:21:26.383Z,42.54
2024-01-11T08:22:27.850Z,41.83
2024-01-11T08:23:26.256Z,41.83
2024-01-11T08:24:27.456Z,41.73
2024-01-11T08:25:26.317Z,41.10
2024-01-11T08:26:25.991Z,41.41
2024-01-11T08:27:27.374Z,41.61
2024-01-11T08:28:26.161Z,41.20
2024-01-11T08:29:26.940Z,41.20
2024-01-11T08:30:26.227Z,42.11
2024-01-11T08:31:34.143Z,42.61
2024-01-11T08:32:32.275Z,42.32
2024-01-11T08:33:26.145Z,42.52
2024-01-11T08:34:26.138Z,42.60
2024-01-11T08:35:25.983Z,42.49
2024-01-11T08:36:29.109Z,43.12
2024-01-11T08:37:33.262Z,42.72
2024-01-11T08:38:43.514Z,42.41
2024-01-11T08:39:27.807Z,42.29
2024-01-11T08:40:26.823Z,41.99
2024-01-11T08:41:26.003Z,42.19
2024-01-11T08:42:26.007Z,41.79
2024-01-11T08:43:26.104Z,41.99
2024-01-11T08:44:43.889Z,41.71
2024-01-11T08:45:41.220Z,41.61
2024-01-11T08:47:58.018Z,41.50
2024-01-11T08:49:10.407Z,41.91
2024-01-11T08:49:26.769Z,41.42
2024-01-11T08:50:46.445Z,41.63
2024-01-11T08:54:05.003Z,41.52
2024-01-11T08:54:22.573Z,41.22
2024-01-11T08:55:25.997Z,41.83
2024-01-11T08:56:21.360Z,41.63
2024-01-11T08:57:28.153Z,41.22
2024-01-11T08:58:23.785Z,41.32
2024-01-11T08:59:36.004Z,41.42
2024-01-11T09:00:20.571Z,41.73
2024-01-11T09:01:29.309Z,41.32
2024-01-11T09:02:37.051Z,41.32
2024-01-11T09:16:17.844Z,41.10
2024-01-11T09:17:25.725Z,41.30
2024-01-11T09:18:13.316Z,41.50
2024-01-11T09:19:08.073Z,41.20
2024-01-11T09:20:09.324Z,40.82
2024-01-11T09:23:54.651Z,40.82
2024-01-11T09:24:18.116Z,40.82
2024-01-11T09:25:17.795Z,41.02
2024-01-11T09:26:30.134Z,41.02
2024-01-11T09:27:17.630Z,41.02
2024-01-11T09:28:33.701Z,41.12
2024-01-11T09:29:21.876Z,41.12
2024-01-11T09:30:19.283Z,41.02
2024-01-11T09:32:54.551Z,41.12
2024-01-11T09:33:47.369Z,41.73
2024-01-11T09:34:22.639Z,41.52
2024-01-11T09:37:01.087Z,41.83
2024-01-11T09:37:25.563Z,41.32
2024-01-11T09:38:44.367Z,41.42
2024-01-11T09:39:30.402Z,41.12
2024-01-11T09:40:20.495Z,41.12
2024-01-11T09:41:21.232Z,41.12
2024-01-11T09:42:26.319Z,41.12
2024-01-11T09:43:38.392Z,41.32
2024-01-11T09:44:25.728Z,41.22
2024-01-11T09:46:35.681Z,41.12
2024-01-11T09:46:58.701Z,40.92
2024-01-11T09:47:44.210Z,41.02
2024-01-11T09:48:50.301Z,41.52
2024-01-11T12:18:02.006Z,41.39
2024-01-11T12:19:02.831Z,41.28
2024-01-11T12:20:02.817Z,41.28
2024-01-11T12:21:02.718Z,41.28
2024-01-11T12:22:02.791Z,40.98
2024-01-11T12:23:02.689Z,41.59
2024-01-11T12:24:02.668Z,41.69
2024-01-11T12:25:02.661Z,41.28
2024-01-11T12:26:03.718Z,41.27
2024-01-11T12:27:02.689Z,41.16
2024-01-11T12:28:02.655Z,41.16
2024-01-11T12:29:02.672Z,41.06
2024-01-11T12:30:02.717Z,41.08
2024-01-11T12:31:02.696Z,41.39
2024-01-11T12:32:02.689Z,41.47
2024-01-11T12:33:02.725Z,40.86
2024-01-11T12:34:02.572Z,41.08
2024-01-11T12:35:02.595Z,40.98
2024-01-11T12:36:02.511Z,41.08
2024-01-11T12:37:02.538Z,40.68
2024-01-11T12:38:03.101Z,41.08
2024-01-11T12:39:02.513Z,41.00
2024-01-11T12:40:02.544Z,41.00
2024-01-11T12:41:02.526Z,40.80
2024-01-11T12:42:03.113Z,40.90
2024-01-11T12:43:02.513Z,41.10
2024-01-11T12:44:02.560Z,41.41
2024-01-11T12:45:02.597Z,41.20
2024-01-11T12:46:02.400Z,41.42
2024-01-11T12:47:02.527Z,41.50
2024-01-11T12:48:02.546Z,41.30
2024-01-11T12:49:02.652Z,40.70
2024-01-11T12:50:02.478Z,41.20
2024-01-11T12:51:10.911Z,41.20
2024-01-11T12:52:02.353Z,41.00
2024-01-11T12:53:02.366Z,40.90
2024-01-11T12:54:02.504Z,41.81
2024-01-11T12:55:02.316Z,41.30
2024-01-11T12:56:02.399Z,41.00
2024-01-11T12:57:02.548Z,40.90
2024-01-11T12:58:02.283Z,40.90
2024-01-11T12:59:02.474Z,41.30
2024-01-11T13:00:02.207Z,41.20
2024-01-11T13:01:03.151Z,40.80
2024-01-11T13:02:02.244Z,40.80
2024-01-11T13:03:02.163Z,41.30
2024-01-11T13:04:02.236Z,40.80
2024-01-11T13:05:02.213Z,40.59
2024-01-11T13:06:02.188Z,40.80
2024-01-11T13:07:02.110Z,40.59
2024-01-11T13:08:02.217Z,41.00
2024-01-11T13:09:02.536Z,40.59
2024-01-11T13:10:02.043Z,40.39
2024-01-11T13:11:02.058Z,40.59
2024-01-11T13:12:02.014Z,40.50
2024-01-11T13:13:08.930Z,40.09
2024-01-11T13:14:02.566Z,40.30
2024-01-11T13:15:01.989Z,40.39
2024-01-11T13:16:01.978Z,40.39
2024-01-11T13:17:01.995Z,40.09
2024-01-11T13:18:02.124Z,40.30
2024-01-11T13:19:02.275Z,40.50
2024-01-11T13:20:02.715Z,40.17
2024-01-11T13:21:01.974Z,40.37
2024-01-11T13:22:02.592Z,40.19
2024-01-11T13:23:01.936Z,39.99
2024-01-11T13:24:01.880Z,39.99
2024-01-11T13:25:01.860Z,39.89
2024-01-11T13:26:01.940Z,39.89
2024-01-11T13:27:01.906Z,39.79
2024-01-11T13:28:01.840Z,39.89
2024-01-11T13:29:01.812Z,40.09
2024-01-11T13:30:01.780Z,40.01
2024-01-11T13:31:01.810Z,40.01
2024-01-11T13:32:03.731Z,40.01
2024-01-11T13:33:01.969Z,40.01
2024-01-11T13:34:02.008Z,40.01
2024-01-11T13:35:01.831Z,39.81
2024-01-11T13:36:01.812Z,39.91
2024-01-11T13:37:01.837Z,40.52
2024-01-11T13:38:01.725Z,40.61
2024-01-11T13:39:02.130Z,40.01
2024-01-11T13:40:01.697Z,39.91
2024-01-11T13:41:02.638Z,40.41
2024-01-11T13:42:01.654Z,40.01
2024-01-11T13:43:01.633Z,40.82
2024-01-11T13:44:01.633Z,40.61
2024-01-11T13:45:02.158Z,40.11
2024-01-11T13:46:01.624Z,40.31
2024-01-11T13:47:01.690Z,40.31
2024-01-11T13:48:01.708Z,40.11
2024-01-11T13:49:02.176Z,40.21
2024-01-11T13:50:02.171Z,40.31
2024-01-11T13:51:01.690Z,40.52
2024-01-11T13:52:02.256Z,40.82
2024-01-11T13:53:01.939Z,41.12
2024-01-11T13:54:01.457Z,41.02
2024-01-11T13:55:01.560Z,40.72
2024-01-11T13:56:01.523Z,40.61
2024-01-11T13:57:01.437Z,40.61
2024-01-11T13:58:01.451Z,40.44
2024-01-11T13:59:01.390Z,40.44
2024-01-11T14:00:01.374Z,40.64
2024-01-11T14:01:01.446Z,40.53
2024-01-11T14:02:01.359Z,40.53
2024-01-11T14:03:01.443Z,40.84
2024-01-11T14:04:01.335Z,40.64
2024-01-11T14:05:01.308Z,40.53
2024-01-11T14:06:01.500Z,40.94
2024-01-11T14:07:01.294Z,40.84
2024-01-11T14:08:01.289Z,40.84
2024-01-11T14:09:01.262Z,41.32
2024-01-11T14:10:01.251Z,40.52
2024-01-11T14:11:01.263Z,40.61
2024-01-11T14:12:01.255Z,41.04
2024-01-11T14:13:01.218Z,41.04
2024-01-11T14:14:01.526Z,40.73
2024-01-11T14:15:01.185Z,40.64
2024-01-11T14:16:01.180Z,40.84
2024-01-11T14:17:01.158Z,41.04
2024-01-11T14:18:01.455Z,40.94
2024-01-11T14:19:01.606Z,41.24
2024-01-11T14:20:01.426Z,41.44
2024-01-11T14:21:01.186Z,41.04
2024-01-11T14:22:01.128Z,41.14
2024-01-11T14:23:01.140Z,41.35
2024-01-11T14:24:01.541Z,41.44
2024-01-11T14:25:01.081Z,41.35
2024-01-11T14:26:01.566Z,41.35
2024-01-11T14:27:01.033Z,41.44
2024-01-11T14:28:01.024Z,41.55
2024-01-11T14:29:01.007Z,40.84
2024-01-11T14:30:00.986Z,40.94
2024-01-11T14:31:00.992Z,41.14
2024-01-11T14:32:00.978Z,41.14
2024-01-11T14:33:01.061Z,41.04
2024-01-11T14:34:01.074Z,41.24
2024-01-11T14:35:00.979Z,41.14
2024-01-11T14:36:01.141Z,40.84
2024-01-11T14:37:00.915Z,40.44
2024-01-11T14:38:00.890Z,40.73
2024-01-11T14:39:00.866Z,40.73
2024-01-11T14:40:00.880Z,40.84
2024-01-11T14:41:00.861Z,40.73
2024-01-11T14:42:00.881Z,40.64
2024-01-11T14:43:00.808Z,40.73
2024-01-11T14:44:00.810Z,40.53
2024-01-11T14:45:00.945Z,40.73
2024-01-11T14:46:00.847Z,40.73
2024-01-11T14:47:00.784Z,40.73
2024-01-11T14:48:00.881Z,40.64
2024-01-11T14:49:00.869Z,40.84
2024-01-11T14:50:00.726Z,40.73
2024-01-11T14:51:00.800Z,40.64
2024-01-11T14:52:00.702Z,40.64
2024-01-11T14:53:00.701Z,40.73
2024-01-11T14:54:00.668Z,40.64
2024-01-11T14:55:00.781Z,40.84
2024-01-11T14:56:00.669Z,40.84
2024-01-11T14:57:00.618Z,40.64
2024-01-11T14:58:02.290Z,40.73
2024-01-11T14:59:00.594Z,40.53
2024-01-11T15:00:00.696Z,40.64
2024-01-11T15:01:00.626Z,40.73
2024-01-11T15:02:00.572Z,40.64
2024-01-11T15:03:00.777Z,40.73
2024-01-11T15:04:00.561Z,40.73
2024-01-11T15:05:00.559Z,40.53
2024-01-11T15:06:00.664Z,40.64
2024-01-11T15:07:00.682Z,40.53
2024-01-11T15:08:00.496Z,40.64
2024-01-11T15:09:00.511Z,40.73
2024-01-11T15:10:00.461Z,40.53
2024-01-11T15:11:00.467Z,40.61
2024-01-11T15:12:00.434Z,40.52
2024-01-11T15:13:00.447Z,40.61
2024-01-11T15:14:00.443Z,40.52
2024-01-11T15:15:00.507Z,40.72
2024-01-11T15:16:00.605Z,40.52
2024-01-11T15:17:00.383Z,40.41
2024-01-11T15:18:00.709Z,40.52
2024-01-11T15:19:00.437Z,40.31
2024-01-11T15:20:00.638Z,40.31
2024-01-11T15:21:00.355Z,40.41
2024-01-11T15:22:00.308Z,40.52
2024-01-11T15:23:00.284Z,40.52
2024-01-11T15:24:00.369Z,40.31
2024-01-11T15:25:00.556Z,40.41
2024-01-11T15:26:00.244Z,40.52
2024-01-11T15:27:00.252Z,40.52
2024-01-11T15:28:00.234Z,40.41
2024-01-11T15:29:00.275Z,40.52
2024-01-11T15:30:00.411Z,40.52
2024-01-11T15:31:00.330Z,40.41
2024-01-11T15:32:00.168Z,40.41
2024-01-11T15:33:02.233Z,40.31
2024-01-11T15:34:00.355Z,40.41
2024-01-11T15:35:00.170Z,40.44
2024-01-11T15:36:00.237Z,40.52
2024-01-11T15:37:00.099Z,40.41
2024-01-11T15:38:00.098Z,40.41
2024-01-11T15:39:08.230Z,40.41
2024-01-11T15:40:00.200Z,40.52
2024-01-11T15:41:00.049Z,40.41
2024-01-11T15:42:00.173Z,40.41
2024-01-11T15:43:00.016Z,40.31
2024-01-11T15:44:00.032Z,40.61
2024-01-11T15:44:59.989Z,40.52
2024-01-11T15:46:00.057Z,40.52
2024-01-11T15:47:00.610Z,40.41
2024-01-11T15:48:00.060Z,40.41
2024-01-11T15:49:00.033Z,40.52
2024-01-11T15:49:59.938Z,40.61
2024-01-11T15:51:02.116Z,40.52
2024-01-11T15:51:59.914Z,40.52
2024-01-11T15:52:59.872Z,40.61
2024-01-11T15:53:59.877Z,40.82
2024-01-11T15:54:59.885Z,40.72
2024-01-11T15:55:59.885Z,40.61
2024-01-11T15:57:00.109Z,40.61
2024-01-11T15:58:02.664Z,40.61
2024-01-11T15:58:59.817Z,40.72
2024-01-11T15:59:59.819Z,40.72
2024-01-11T16:00:59.814Z,40.72
2024-01-11T16:02:06.323Z,40.72
2024-01-11T16:03:00.350Z,40.61
2024-01-11T16:03:59.837Z,40.61
2024-01-11T16:04:59.726Z,40.52
2024-01-11T16:05:59.886Z,40.61
2024-01-11T16:06:59.884Z,40.72
2024-01-11T16:07:59.697Z,40.82
2024-01-11T16:08:59.729Z,40.72
2024-01-11T16:09:59.683Z,40.72
2024-01-11T16:10:59.651Z,40.82
2024-01-11T16:12:03.641Z,40.72
2024-01-11T16:12:59.617Z,40.92
2024-01-11T16:14:00.088Z,40.82
2024-01-11T16:14:59.640Z,40.92
2024-01-11T16:15:59.674Z,40.92
2024-01-11T16:16:59.598Z,40.94
2024-01-11T16:17:59.694Z,40.92
2024-01-11T16:18:59.585Z,40.92
2024-01-11T16:19:59.553Z,41.02
2024-01-11T16:20:59.549Z,40.82
2024-01-11T16:21:59.497Z,40.82
2024-01-11T16:22:59.495Z,40.92
2024-01-11T16:24:02.668Z,40.92